Time;durP1;ratioP1;P1;durP2;ratioP2;P2;SDS_P1;SDS_P2;PMS_P1;PMS_P2;Temp;Humidity;BMP_temperature;BMP_pressure;BME280_temperature;BME280_humidity;BME280_pressure;Samples;Min_cycle;Max_cycle;Signal;HPM_P1;HPM_P2
2022/12/04 00:01:06;;;;;;;38.03;17.92;;;1.00;99.90;;;;;;5107642;28;20146;-65
2022/12/04 00:03:33;;;;;;;36.83;18.13;;;1.00;99.90;;;;;;5108786;27;20035;-65
2022/12/04 00:06:25;;;;;;;34.88;17.52;;;0.90;99.90;;;;;;5120335;27;20036;-64
2022/12/04 00:08:52;;;;;;;30.88;15.70;;;0.90;99.90;;;;;;5086459;28;20138;-65
2022/12/04 00:11:21;;;;;;;35.53;17.35;;;0.80;99.90;;;;;;5107737;28;20039;-64
2022/12/04 00:13:48;;;;;;;36.58;17.67;;;0.80;99.90;;;;;;5109160;28;20081;-65
2022/12/04 00:16:19;;;;;;;37.17;18.08;;;0.70;99.90;;;;;;5088588;28;20126;-64
2022/12/04 00:18:45;;;;;;;36.28;19.30;;;0.60;99.90;;;;;;5107674;28;20047;-65
2022/12/04 00:21:13;;;;;;;35.88;17.92;;;0.60;99.90;;;;;;5072059;28;20504;-65
2022/12/04 00:23:40;;;;;;;38.72;18.85;;;0.60;99.90;;;;;;5107478;28;20055;-64
2022/12/04 00:26:12;;;;;;;45.72;19.33;;;0.60;99.90;;;;;;5088811;28;20109;-65
2022/12/04 00:28:38;;;;;;;38.28;18.85;;;0.50;99.90;;;;;;5106763;28;20437;-64
2022/12/04 00:31:07;;;;;;;37.47;19.45;;;0.50;99.90;;;;;;5107087;28;20051;-64
2022/12/04 00:33:34;;;;;;;36.85;19.45;;;0.50;99.90;;;;;;5106496;28;20051;-65
2022/12/04 00:36:02;;;;;;;42.42;20.15;;;0.50;99.90;;;;;;5089437;28;20051;-65
2022/12/04 00:38:29;;;;;;;40.05;19.15;;;0.50;99.90;;;;;;5106497;28;20038;-65
2022/12/04 00:40:55;;;;;;;43.05;19.02;;;0.50;99.90;;;;;;5088740;28;20048;-65
2022/12/04 00:43:22;;;;;;;40.78;19.40;;;0.50;99.90;;;;;;5089370;28;20044;-65
2022/12/04 00:45:48;;;;;;;38.13;19.00;;;0.40;99.90;;;;;;5106355;28;20114;-65
2022/12/04 00:48:14;;;;;;;40.72;19.65;;;0.40;99.90;;;;;;5107782;28;20040;-65
2022/12/04 00:50:39;;;;;;;46.20;20.85;;;0.30;99.90;;;;;;5088665;28;20047;-64
2022/12/04 00:53:06;;;;;;;39.67;18.05;;;0.30;99.90;;;;;;5112182;27;20065;-65
2022/12/04 00:55:31;;;;;;;44.42;18.98;;;0.20;99.90;;;;;;5091634;28;20038;-65
2022/12/04 00:57:57;;;;;;;37.50;19.58;;;0.20;99.90;;;;;;5110842;27;20048;-65
2022/12/04 01:00:23;;;;;;;44.75;19.63;;;0.10;99.90;;;;;;5111193;28;20043;-64
2022/12/04 01:02:48;;;;;;;44.65;20.60;;;0.10;99.90;;;;;;5126973;27;20559;-64
2022/12/04 01:05:15;;;;;;;45.55;19.17;;;0.10;99.90;;;;;;5127925;27;20035;-64
2022/12/04 01:07:41;;;;;;;42.65;20.38;;;0.10;99.90;;;;;;5120643;27;20122;-65
2022/12/04 01:10:10;;;;;;;38.40;19.08;;;0.10;99.90;;;;;;5101807;27;20499;-65
2022/12/04 01:12:36;;;;;;;44.67;20.35;;;0.20;99.90;;;;;;5114740;27;20042;-64
2022/12/04 01:15:03;;;;;;;44.83;20.23;;;0.20;99.90;;;;;;5111170;28;20403;-65
2022/12/04 01:17:28;;;;;;;41.95;20.27;;;0.20;99.90;;;;;;5092041;28;20060;-64
2022/12/04 01:19:54;;;;;;;41.92;20.67;;;0.20;99.90;;;;;;5103952;28;20066;-65
2022/12/04 01:22:20;;;;;;;45.65;20.08;;;0.30;99.90;;;;;;5111248;28;20073;-64
2022/12/04 01:24:46;;;;;;;47.70;20.20;;;0.30;99.90;;;;;;5109759;28;20023;-64
2022/12/04 01:27:11;;;;;;;41.38;20.83;;;0.30;99.90;;;;;;5110955;28;20049;-65
2022/12/04 01:29:37;;;;;;;45.08;19.70;;;0.40;99.90;;;;;;5109320;28;20507;-65
2022/12/04 01:32:03;;;;;;;43.10;21.25;;;0.40;99.90;;;;;;5113929;27;20047;-65
2022/12/04 01:34:29;;;;;;;38.97;19.27;;;0.40;99.90;;;;;;5109620;28;20489;-64
2022/12/04 01:36:55;;;;;;;40.00;20.40;;;0.40;99.90;;;;;;5125043;27;20039;-65
2022/12/04 01:39:21;;;;;;;44.33;20.13;;;0.40;99.90;;;;;;5113552;27;20504;-64
2022/12/04 01:41:47;;;;;;;39.50;19.00;;;0.40;99.90;;;;;;5109891;28;20043;-64
2022/12/04 01:44:22;;;;;;;42.80;19.98;;;0.40;99.90;;;;;;5110046;28;20035;-64
2022/12/04 01:46:56;;;;;;;39.78;18.08;;;0.50;99.90;;;;;;5090892;28;20544;-64
2022/12/04 01:49:46;;;;;;;37.03;18.40;;;0.50;99.90;;;;;;5111246;27;20047;-64
2022/12/04 01:52:19;;;;;;;42.70;19.38;;;0.50;99.90;;;;;;5100290;28;20048;-65
2022/12/04 01:54:53;;;;;;;41.05;18.33;;;0.50;99.90;;;;;;5091541;28;20065;-65
2022/12/04 01:57:22;;;;;;;37.45;18.33;;;0.50;99.90;;;;;;5110247;28;20118;-65
2022/12/04 01:59:59;;;;;;;41.13;18.73;;;0.50;99.90;;;;;;5109083;27;20039;-65
2022/12/04 02:02:37;;;;;;;40.00;19.90;;;0.50;99.90;;;;;;5100255;28;20582;-65
2022/12/04 02:05:11;;;;;;;44.90;19.10;;;0.50;99.90;;;;;;5109337;28;20511;-64
2022/12/04 02:07:38;;;;;;;43.22;18.75;;;0.50;99.90;;;;;;5109447;28;20045;-65
2022/12/04 02:10:07;;;;;;;42.88;20.35;;;0.50;99.90;;;;;;5112794;27;20449;-65
2022/12/04 02:12:43;;;;;;;42.15;20.42;;;0.50;99.90;;;;;;5108626;28;20040;-65
2022/12/04 02:15:21;;;;;;;43.60;20.92;;;0.40;99.90;;;;;;5109501;28;20168;-64
2022/12/04 02:18:24;;;;;;;39.08;19.58;;;0.40;99.90;;;;;;5119314;27;20135;-64
2022/12/04 02:20:59;;;;;;;44.28;20.45;;;0.40;99.90;;;;;;5115593;27;20051;-65
2022/12/04 02:23:47;;;;;;;47.05;22.88;;;0.40;99.90;;;;;;5101216;27;20474;-65
2022/12/04 02:26:44;;;;;;;44.10;21.75;;;0.40;99.90;;;;;;5128597;27;20561;-65
2022/12/04 02:29:28;;;;;;;46.85;21.77;;;0.40;99.90;;;;;;5123031;27;20046;-65
2022/12/04 02:32:21;;;;;;;41.78;22.58;;;0.40;99.90;;;;;;5102985;27;20465;-65
2022/12/04 02:34:59;;;;;;;49.28;23.77;;;0.40;99.90;;;;;;5119790;27;20393;-64
2022/12/04 02:37:38;;;;;;;39.92;21.45;;;0.40;99.90;;;;;;5129709;27;20043;-65
2022/12/04 02:40:16;;;;;;;51.10;23.83;;;0.30;99.90;;;;;;5129895;27;20035;-65
2022/12/04 02:43:07;;;;;;;44.05;21.77;;;0.30;99.90;;;;;;5124746;27;20059;-64
2022/12/04 02:45:43;;;;;;;47.08;23.05;;;0.30;99.90;;;;;;5107201;27;20039;-65
2022/12/04 02:48:13;;;;;;;54.28;24.20;;;0.30;99.90;;;;;;5128755;27;20095;-64
2022/12/04 02:50:40;;;;;;;47.10;23.80;;;0.30;99.90;;;;;;5127371;27;20047;-64
2022/12/04 02:53:26;;;;;;;50.95;24.55;;;0.30;99.90;;;;;;5126078;27;20050;-65
2022/12/04 02:55:59;;;;;;;47.50;24.20;;;0.30;99.90;;;;;;5116518;27;20499;-65
2022/12/04 02:58:36;;;;;;;42.42;21.73;;;0.30;99.90;;;;;;5129269;27;20090;-65
2022/12/04 03:01:18;;;;;;;53.60;23.23;;;0.30;99.90;;;;;;5116759;27;20435;-65
2022/12/04 03:03:52;;;;;;;51.53;23.83;;;0.30;99.90;;;;;;5108439;27;20051;-65
2022/12/04 03:06:20;;;;;;;43.90;22.92;;;0.30;99.90;;;;;;5129182;27;20398;-65
2022/12/04 03:08:52;;;;;;;46.90;24.48;;;0.30;99.90;;;;;;5117596;27;20046;-65
2022/12/04 03:11:18;;;;;;;44.25;24.05;;;0.30;99.90;;;;;;5111014;27;20046;-64
2022/12/04 03:13:49;;;;;;;46.90;25.02;;;0.30;99.90;;;;;;5107857;27;20410;-65
2022/12/04 03:16:26;;;;;;;48.78;21.95;;;0.30;99.90;;;;;;5108365;28;20047;-65
2022/12/04 03:19:00;;;;;;;48.72;24.80;;;0.30;99.90;;;;;;5108609;28;20055;-65
2022/12/04 03:21:31;;;;;;;46.17;23.98;;;0.30;99.90;;;;;;5107586;28;20354;-65
2022/12/04 03:23:57;;;;;;;47.17;24.17;;;0.30;99.90;;;;;;5090475;28;20043;-65
2022/12/04 03:26:36;;;;;;;52.55;25.98;;;0.30;99.90;;;;;;5089212;28;20126;-65
2022/12/04 03:29:10;;;;;;;47.63;24.17;;;0.30;99.90;;;;;;5108492;28;20096;-65
2022/12/04 03:31:50;;;;;;;46.20;25.05;;;0.30;99.90;;;;;;5108757;27;20052;-65
2022/12/04 03:34:27;;;;;;;49.10;24.80;;;0.30;99.90;;;;;;5107263;28;20060;-65
2022/12/04 03:36:57;;;;;;;51.13;26.02;;;0.30;99.90;;;;;;5117771;27;20063;-64
2022/12/04 03:39:34;;;;;;;53.87;26.60;;;0.30;99.90;;;;;;5107196;28;20082;-65
2022/12/04 03:42:21;;;;;;;49.85;24.70;;;0.30;99.90;;;;;;5108441;28;20067;-65
2022/12/04 03:45:13;;;;;;;46.60;24.77;;;0.30;99.90;;;;;;5108328;28;20061;-65
2022/12/04 03:47:50;;;;;;;49.60;23.75;;;0.30;99.90;;;;;;5081687;28;20055;-64
2022/12/04 03:50:24;;;;;;;55.22;25.75;;;0.30;99.90;;;;;;5108000;28;20486;-65
2022/12/04 03:52:57;;;;;;;48.00;25.92;;;0.30;99.90;;;;;;5107644;28;20043;-65
2022/12/04 03:55:29;;;;;;;52.10;25.77;;;0.30;99.90;;;;;;5106964;28;20032;-65
2022/12/04 03:58:01;;;;;;;48.83;27.17;;;0.30;99.90;;;;;;5110541;27;20042;-65
2022/12/04 04:00:29;;;;;;;48.85;26.77;;;0.30;99.90;;;;;;5107196;27;20047;-65
2022/12/04 04:03:05;;;;;;;46.67;24.40;;;0.30;99.90;;;;;;5114336;27;20083;-64
2022/12/04 04:05:33;;;;;;;45.67;24.70;;;0.30;99.90;;;;;;5106896;28;20089;-65
2022/12/04 04:10:49;;;;;;;46.38;24.27;;;0.30;99.90;;;;;;5123997;27;20051;-65
2022/12/04 04:24:44;;;;;;;52.55;27.80;;;0.30;99.90;;;;;;5108548;28;20397;-65
2022/12/04 04:27:11;;;;;;;55.42;27.77;;;0.40;99.90;;;;;;5106789;28;20079;-65
2022/12/04 04:29:38;;;;;;;50.30;26.15;;;0.30;99.90;;;;;;5088892;28;20087;-65
2022/12/04 04:32:25;;;;;;;49.72;27.65;;;0.40;99.90;;;;;;5091107;28;20055;-64
2022/12/04 04:35:24;;;;;;;58.22;25.15;;;0.30;99.90;;;;;;5107071;28;20355;-65
2022/12/04 04:38:01;;;;;;;50.25;27.33;;;0.30;99.90;;;;;;5107265;28;20545;-65
2022/12/04 04:40:59;;;;;;;57.30;27.85;;;0.40;99.90;;;;;;5106696;28;20071;-65
2022/12/04 04:43:32;;;;;;;50.58;25.73;;;0.40;99.90;;;;;;5078947;28;20368;-65
2022/12/04 04:46:12;;;;;;;51.40;27.08;;;0.40;99.90;;;;;;5108508;28;20032;-65
2022/12/04 04:48:45;;;;;;;52.80;27.17;;;0.40;99.90;;;;;;5106197;28;20051;-65
2022/12/04 04:51:11;;;;;;;48.72;25.38;;;0.40;99.90;;;;;;5107662;28;20035;-65
2022/12/04 04:53:50;;;;;;;49.15;24.98;;;0.50;99.90;;;;;;5106647;28;20047;-65
2022/12/04 04:56:16;;;;;;;49.67;25.58;;;0.50;99.90;;;;;;5107548;28;20171;-65
2022/12/04 04:58:42;;;;;;;48.72;26.73;;;0.40;99.90;;;;;;5107985;28;20659;-65
2022/12/04 05:01:14;;;;;;;49.25;26.27;;;0.40;99.90;;;;;;5106046;28;20039;-65
2022/12/04 05:03:40;;;;;;;50.90;27.92;;;0.50;99.90;;;;;;5106907;28;20068;-64
2022/12/04 05:06:06;;;;;;;57.78;29.33;;;0.50;99.90;;;;;;5088242;28;20434;-65
2022/12/04 05:08:33;;;;;;;46.65;25.33;;;0.50;99.90;;;;;;5106640;28;20075;-64
2022/12/04 05:10:59;;;;;;;50.88;27.08;;;0.50;99.90;;;;;;5121673;28;20039;-65
2022/12/04 05:13:28;;;;;;;54.80;27.20;;;0.50;99.90;;;;;;5106207;28;20043;-65
2022/12/04 05:16:15;;;;;;;55.28;29.20;;;0.50;99.90;;;;;;5107059;28;20483;-64
2022/12/04 05:19:52;;;;;;;50.17;27.23;;;0.40;99.90;;;;;;5110029;28;20096;-65
2022/12/04 05:21:31;;;;;;;52.50;27.52;;;0.50;99.90;;;;;;5088180;28;20047;-65
2022/12/04 05:23:57;;;;;;;50.20;27.35;;;0.50;99.90;;;;;;5107420;28;20040;-65
2022/12/04 05:26:24;;;;;;;52.72;27.65;;;0.60;99.90;;;;;;5106056;28;20036;-65
2022/12/04 05:28:49;;;;;;;50.88;28.65;;;0.60;99.90;;;;;;5106785;28;20058;-65
2022/12/04 05:31:15;;;;;;;51.83;25.98;;;0.70;99.90;;;;;;5091445;28;20043;-65
2022/12/04 05:33:41;;;;;;;50.85;27.15;;;0.70;99.90;;;;;;5117898;28;20044;-65
2022/12/04 05:36:09;;;;;;;50.55;24.30;;;0.70;99.90;;;;;;5106302;28;20040;-65
2022/12/04 05:38:35;;;;;;;56.03;28.73;;;0.70;99.90;;;;;;5113913;27;20089;-65
2022/12/04 05:41:03;;;;;;;44.35;23.52;;;0.70;99.90;;;;;;5117421;27;20115;-65
2022/12/04 05:43:29;;;;;;;55.80;28.27;;;0.70;99.90;;;;;;5109663;28;20473;-65
2022/12/04 05:46:00;;;;;;;48.35;25.08;;;0.50;99.90;;;;;;5110821;28;20074;-65
2022/12/04 05:48:26;;;;;;;50.85;26.50;;;0.70;99.90;;;;;;5110156;27;20035;-65
2022/12/04 05:50:52;;;;;;;53.30;28.55;;;0.70;99.90;;;;;;5101408;28;20760;-65
2022/12/04 05:53:17;;;;;;;52.42;27.45;;;0.70;99.90;;;;;;5090841;28;20047;-65
2022/12/04 05:55:43;;;;;;;51.65;25.65;;;0.70;99.90;;;;;;5095886;28;20073;-64
2022/12/04 05:58:09;;;;;;;55.25;26.50;;;0.70;99.90;;;;;;5091622;28;20083;-65
2022/12/04 06:00:35;;;;;;;49.83;27.52;;;0.70;99.90;;;;;;5109013;27;20039;-65
2022/12/04 06:03:01;;;;;;;50.38;25.02;;;0.80;99.90;;;;;;5098037;28;20047;-65
2022/12/04 06:05:27;;;;;;;53.28;27.73;;;0.80;99.90;;;;;;5090800;28;20056;-65
2022/12/04 06:07:52;;;;;;;50.63;27.30;;;0.80;99.90;;;;;;5077264;27;20051;-65
2022/12/04 06:10:18;;;;;;;51.17;27.35;;;0.80;99.90;;;;;;5125022;27;20118;-65
2022/12/04 06:12:44;;;;;;;48.95;26.00;;;0.80;99.90;;;;;;5093200;28;20046;-65
2022/12/04 06:15:10;;;;;;;50.10;26.23;;;0.80;99.90;;;;;;5109217;27;20081;-65
2022/12/04 06:17:35;;;;;;;50.15;25.88;;;0.80;99.90;;;;;;5112378;27;20059;-65
2022/12/04 06:20:05;;;;;;;49.50;26.35;;;0.90;99.90;;;;;;5109984;28;20059;-65
2022/12/04 06:22:31;;;;;;;51.03;25.02;;;0.90;99.90;;;;;;5105158;27;20047;-65
2022/12/04 06:24:56;;;;;;;47.25;24.73;;;0.90;99.90;;;;;;5123176;27;20554;-65
2022/12/04 06:27:22;;;;;;;53.17;25.15;;;0.90;99.90;;;;;;5090119;28;20055;-65
2022/12/04 06:29:48;;;;;;;43.75;24.55;;;0.90;99.90;;;;;;5090724;28;20397;-65
2022/12/04 06:32:14;;;;;;;45.10;24.92;;;0.90;99.90;;;;;;5108855;28;20154;-65
2022/12/04 06:34:40;;;;;;;50.08;25.25;;;1.00;99.90;;;;;;5073841;28;20799;-65
2022/12/04 06:37:05;;;;;;;47.17;24.73;;;1.00;99.90;;;;;;5097106;28;20121;-64
2022/12/04 06:39:31;;;;;;;43.70;24.02;;;1.00;99.90;;;;;;5108705;28;20509;-65
2022/12/04 06:41:57;;;;;;;42.17;23.98;;;1.00;99.90;;;;;;5074000;28;20078;-65
2022/12/04 06:44:23;;;;;;;48.38;23.65;;;1.00;99.90;;;;;;5073451;28;20105;-65
2022/12/04 06:46:49;;;;;;;45.75;23.88;;;1.00;99.90;;;;;;5090805;28;20047;-64
2022/12/04 06:49:14;;;;;;;45.63;25.45;;;1.00;99.90;;;;;;5108103;28;20039;-65
2022/12/04 06:51:40;;;;;;;47.70;24.08;;;1.00;99.90;;;;;;5091355;28;20055;-64
2022/12/04 06:54:06;;;;;;;47.70;25.40;;;1.00;99.90;;;;;;5109389;27;20490;-65
2022/12/04 06:56:32;;;;;;;43.13;23.52;;;1.00;99.90;;;;;;5104853;27;20046;-65
2022/12/04 06:59:00;;;;;;;48.58;25.05;;;1.00;99.90;;;;;;5108714;28;20081;-64
2022/12/04 07:01:28;;;;;;;45.60;25.30;;;1.00;99.90;;;;;;5113742;27;20055;-65
2022/12/04 07:03:55;;;;;;;46.97;24.02;;;1.00;99.90;;;;;;5090999;28;20047;-65
2022/12/04 07:06:32;;;;;;;51.17;26.15;;;1.00;99.90;;;;;;5113622;27;20039;-65
2022/12/04 07:09:08;;;;;;;44.78;24.83;;;1.10;99.90;;;;;;5109888;27;20039;-65
2022/12/04 07:11:35;;;;;;;47.63;26.40;;;1.10;99.90;;;;;;5101514;28;20103;-65
2022/12/04 07:14:01;;;;;;;44.17;23.55;;;1.10;99.90;;;;;;5107762;28;20115;-65
2022/12/04 07:16:27;;;;;;;42.45;23.38;;;1.10;99.90;;;;;;5115806;27;20040;-65
2022/12/04 07:18:55;;;;;;;46.00;23.38;;;1.10;99.90;;;;;;5107053;28;20093;-65
2022/12/04 07:21:23;;;;;;;49.85;25.52;;;1.10;99.90;;;;;;5108634;28;20031;-64
2022/12/04 07:23:50;;;;;;;49.63;25.67;;;1.20;99.90;;;;;;5107227;28;20035;-64
2022/12/04 07:26:17;;;;;;;45.50;24.20;;;1.20;99.90;;;;;;5113912;27;20044;-65
2022/12/04 07:28:46;;;;;;;42.90;21.73;;;1.20;99.90;;;;;;5100073;27;20039;-65
2022/12/04 07:31:17;;;;;;;41.92;22.35;;;1.30;99.90;;;;;;5094918;28;20051;-65
2022/12/04 07:33:44;;;;;;;46.60;24.05;;;1.20;99.90;;;;;;5108707;28;20048;-65
2022/12/04 07:36:13;;;;;;;44.08;24.17;;;1.30;99.90;;;;;;5106680;28;20044;-65
2022/12/04 07:38:40;;;;;;;44.67;25.13;;;1.30;99.90;;;;;;5108449;28;20050;-65
2022/12/04 07:41:07;;;;;;;50.20;26.73;;;1.30;99.90;;;;;;5119476;27;20049;-65
2022/12/04 07:43:33;;;;;;;44.95;25.40;;;1.30;99.90;;;;;;5108529;28;20031;-64
2022/12/04 07:46:07;;;;;;;44.95;23.20;;;1.30;99.90;;;;;;5107259;28;20035;-65
2022/12/04 07:48:33;;;;;;;43.80;25.23;;;1.40;99.90;;;;;;5107749;28;20126;-65
2022/12/04 07:51:08;;;;;;;46.42;23.70;;;1.40;99.90;;;;;;5108235;28;20135;-64
2022/12/04 07:53:34;;;;;;;46.50;24.20;;;1.40;99.90;;;;;;5090273;27;20055;-65
2022/12/04 07:56:00;;;;;;;43.08;23.45;;;1.40;99.90;;;;;;5117465;27;20048;-64
2022/12/04 07:58:26;;;;;;;39.72;22.98;;;1.40;99.90;;;;;;5106593;28;20043;-65
2022/12/04 08:00:52;;;;;;;40.15;21.77;;;1.40;99.90;;;;;;5108979;27;20043;-65
2022/12/04 08:03:18;;;;;;;41.83;24.23;;;1.40;99.90;;;;;;5089351;28;20096;-65
2022/12/04 08:05:43;;;;;;;38.13;21.85;;;1.50;99.90;;;;;;5089450;28;20130;-65
2022/12/04 08:08:09;;;;;;;42.03;22.23;;;1.50;99.90;;;;;;5107929;28;20035;-65
2022/12/04 08:10:35;;;;;;;39.45;23.40;;;1.50;99.90;;;;;;5121250;27;20055;-65
2022/12/04 08:13:00;;;;;;;38.42;21.95;;;1.50;99.90;;;;;;5099547;28;20094;-65
2022/12/04 08:15:26;;;;;;;40.20;21.83;;;1.50;99.90;;;;;;5106880;28;20054;-65
2022/12/04 08:17:52;;;;;;;44.28;22.67;;;1.60;99.90;;;;;;5092923;28;20462;-65
2022/12/04 08:20:17;;;;;;;39.80;20.75;;;1.60;99.90;;;;;;5106214;28;20528;-64
2022/12/04 08:22:43;;;;;;;39.92;21.77;;;1.60;99.90;;;;;;5107898;28;20125;-65
2022/12/04 08:25:09;;;;;;;35.08;20.30;;;1.60;99.90;;;;;;5107143;28;20047;-64
2022/12/04 08:27:35;;;;;;;39.78;21.85;;;1.70;99.90;;;;;;5121651;28;20493;-65
2022/12/04 08:30:00;;;;;;;42.13;20.85;;;1.70;99.90;;;;;;5107382;28;20058;-64
2022/12/04 08:32:26;;;;;;;35.78;20.10;;;1.70;99.90;;;;;;5094131;28;20048;-65
2022/12/04 08:34:52;;;;;;;39.03;21.23;;;1.80;99.90;;;;;;5089663;28;20067;-65
2022/12/04 08:37:17;;;;;;;36.92;20.90;;;1.80;99.90;;;;;;5087666;28;20039;-65
2022/12/04 08:39:43;;;;;;;34.03;17.98;;;1.90;99.90;;;;;;5107834;28;20459;-64
2022/12/04 08:42:09;;;;;;;32.05;19.02;;;1.90;99.90;;;;;;5094705;28;20127;-65
2022/12/04 08:44:34;;;;;;;38.35;19.25;;;2.00;99.90;;;;;;5112745;28;20054;-64
2022/12/04 08:47:00;;;;;;;31.92;18.52;;;2.00;99.90;;;;;;5107529;28;20524;-64
2022/12/04 08:49:26;;;;;;;32.45;20.13;;;2.10;99.90;;;;;;5106399;28;20405;-65
2022/12/04 08:51:51;;;;;;;39.03;18.17;;;2.10;99.90;;;;;;5089197;28;20104;-64
2022/12/04 08:54:17;;;;;;;34.63;18.30;;;2.20;99.90;;;;;;5114907;28;20086;-64
2022/12/04 08:56:43;;;;;;;36.78;19.05;;;2.20;99.90;;;;;;5107803;28;20047;-64
2022/12/04 08:59:11;;;;;;;36.65;18.70;;;2.30;99.90;;;;;;5106428;28;20493;-65
2022/12/04 09:01:36;;;;;;;32.28;17.58;;;2.30;99.90;;;;;;5107316;28;20047;-65
2022/12/04 09:04:02;;;;;;;32.13;18.45;;;2.30;99.90;;;;;;5107327;28;20576;-65
2022/12/04 09:06:29;;;;;;;38.10;20.88;;;2.30;99.90;;;;;;5089952;28;20048;-64
2022/12/04 09:08:55;;;;;;;33.05;17.77;;;2.40;99.90;;;;;;5112516;28;20040;-64
2022/12/04 09:11:24;;;;;;;30.52;17.20;;;2.40;99.90;;;;;;5105824;28;20032;-64
2022/12/04 09:13:50;;;;;;;36.75;20.05;;;2.40;99.90;;;;;;5101204;27;20069;-65
2022/12/04 09:16:21;;;;;;;39.40;20.20;;;2.40;99.90;;;;;;5116217;27;20043;-64
2022/12/04 09:18:48;;;;;;;37.08;19.75;;;2.30;99.90;;;;;;5113076;27;20051;-65
2022/12/04 09:21:16;;;;;;;29.98;15.63;;;2.30;99.90;;;;;;5130796;27;20100;-64
2022/12/04 09:23:42;;;;;;;33.47;17.60;;;2.30;99.90;;;;;;5127378;27;20048;-64
2022/12/04 09:26:26;;;;;;;32.03;16.63;;;2.20;99.90;;;;;;5114087;27;20507;-64
2022/12/04 09:28:53;;;;;;;38.15;20.92;;;2.20;99.90;;;;;;5111623;27;20514;-64
2022/12/04 09:31:20;;;;;;;37.92;18.65;;;2.20;99.90;;;;;;5126478;27;20050;-64
2022/12/04 09:33:47;;;;;;;40.30;18.75;;;2.30;99.90;;;;;;5110507;27;20089;-64
2022/12/04 09:36:16;;;;;;;34.08;17.10;;;2.30;99.90;;;;;;5110155;27;20051;-64
2022/12/04 09:38:46;;;;;;;32.15;19.05;;;2.30;99.90;;;;;;5119563;27;20134;-64
2022/12/04 09:41:49;;;;;;;31.90;18.08;;;2.30;99.90;;;;;;5124923;27;20067;-65
2022/12/04 09:44:23;;;;;;;31.13;17.40;;;2.30;99.90;;;;;;5119037;27;20112;-64
2022/12/04 09:46:56;;;;;;;34.28;17.60;;;2.30;99.90;;;;;;5126426;27;20473;-65
2022/12/04 09:49:38;;;;;;;27.98;15.30;;;2.30;99.90;;;;;;5113330;27;20035;-65
2022/12/04 09:52:24;;;;;;;34.17;16.35;;;2.30;99.90;;;;;;5114002;27;20043;-65
2022/12/04 09:54:51;;;;;;;23.23;13.73;;;2.40;99.90;;;;;;5097242;27;20101;-65
2022/12/04 09:57:42;;;;;;;31.02;15.93;;;2.40;99.90;;;;;;5130811;27;20438;-64
2022/12/04 10:00:14;;;;;;;28.38;14.48;;;2.40;99.90;;;;;;5127611;27;21628;-64
2022/12/04 10:02:44;;;;;;;26.70;14.73;;;2.40;99.90;;;;;;5119692;27;20055;-65
2022/12/04 10:05:34;;;;;;;31.17;16.92;;;2.50;99.90;;;;;;5130251;27;20058;-65
2022/12/04 10:08:29;;;;;;;;;;;2.50;99.90;;;;;;5091240;28;20047;-66
2022/12/04 10:10:57;;;;;;;26.90;13.25;;;2.50;99.90;;;;;;5096548;28;19927;-65
2022/12/04 10:13:50;;;;;;;29.13;16.33;;;2.50;99.90;;;;;;5109772;28;20096;-66
2022/12/04 10:16:31;;;;;;;30.88;14.98;;;2.60;99.90;;;;;;5108877;27;20044;-66
2022/12/04 10:19:22;;;;;;;30.65;16.70;;;2.60;99.90;;;;;;5110166;28;20067;-66
2022/12/04 10:22:09;;;;;;;36.88;18.05;;;2.60;99.90;;;;;;5109840;28;20054;-65
2022/12/04 10:24:48;;;;;;;29.55;15.57;;;2.60;99.90;;;;;;5108274;28;20040;-66
2022/12/04 10:27:24;;;;;;;24.63;13.65;;;2.60;99.90;;;;;;5111712;27;20149;-65
2022/12/04 10:30:06;;;;;;;27.55;15.02;;;2.60;99.90;;;;;;5128175;27;20128;-65
2022/12/04 10:32:33;;;;;;;18.88;9.82;;;2.60;99.90;;;;;;5106923;27;20378;-65
2022/12/04 10:35:22;;;;;;;26.55;14.32;;;2.60;99.90;;;;;;5130091;27;20100;-65
2022/12/04 10:38:05;;;;;;;28.73;12.30;;;2.60;99.90;;;;;;5117469;27;20138;-65
2022/12/04 10:40:39;;;;;;;30.20;15.93;;;2.60;99.90;;;;;;5120822;27;20046;-67
2022/12/04 10:43:50;;;;;;;29.48;15.60;;;2.70;99.90;;;;;;5129031;27;20050;-66
2022/12/04 10:46:26;;;;;;;26.27;14.35;;;2.70;99.90;;;;;;5123353;27;20067;-66
2022/12/04 10:49:00;;;;;;;27.92;12.68;;;2.70;99.90;;;;;;5096555;28;20096;-66
2022/12/04 10:51:28;;;;;;;28.30;14.90;;;2.80;99.90;;;;;;5125246;27;20927;-66
2022/12/04 10:53:55;;;;;;;27.10;16.25;;;2.80;99.90;;;;;;5111698;27;20074;-64
2022/12/04 10:56:24;;;;;;;22.17;12.77;;;2.80;99.90;;;;;;5129102;27;20080;-63
2022/12/04 10:59:06;;;;;;;27.38;14.50;;;2.80;99.90;;;;;;5099191;28;20054;-62
2022/12/04 11:01:34;;;;;;;34.83;17.73;;;2.70;99.90;;;;;;5121493;27;20053;-61
2022/12/04 11:04:06;;;;;;;28.58;15.52;;;2.70;99.90;;;;;;5128448;27;20876;-61
2022/12/04 11:06:34;;;;;;;33.20;17.77;;;2.70;99.90;;;;;;5106785;27;20126;-60
2022/12/04 11:09:02;;;;;;;28.17;17.02;;;2.70;99.90;;;;;;5094351;27;20042;-60
2022/12/04 11:11:31;;;;;;;28.08;15.65;;;2.80;99.90;;;;;;5112712;27;20076;-61
2022/12/04 11:14:26;;;;;;;33.78;16.98;;;2.80;99.90;;;;;;5101735;27;20039;-61
2022/12/04 11:17:04;;;;;;;29.83;16.80;;;2.80;99.90;;;;;;5098424;27;20065;-61
2022/12/04 11:19:33;;;;;;;26.48;15.85;;;2.80;99.90;;;;;;5121146;27;20047;-60
2022/12/04 11:22:12;;;;;;;30.80;16.63;;;2.80;99.90;;;;;;5127642;27;20469;-60
2022/12/04 11:24:41;;;;;;;28.40;17.13;;;2.90;99.90;;;;;;5109821;27;20101;-60
2022/12/04 11:27:17;;;;;;;34.20;17.00;;;2.80;99.90;;;;;;5129389;27;20035;-60
2022/12/04 11:29:45;;;;;;;29.23;17.55;;;2.80;99.90;;;;;;5123004;27;20065;-60
2022/12/04 11:32:27;;;;;;;29.58;16.55;;;2.80;99.90;;;;;;5119849;27;20124;-60
2022/12/04 11:34:56;;;;;;;26.92;14.45;;;2.90;99.90;;;;;;5126124;27;20035;-61
2022/12/04 11:37:29;;;;;;;27.75;16.77;;;2.90;99.90;;;;;;5128827;27;20070;-60
2022/12/04 11:39:55;;;;;;;28.08;14.80;;;2.90;99.90;;;;;;5109273;27;20062;-60
2022/12/04 11:42:29;;;;;;;27.20;16.08;;;2.90;99.90;;;;;;5109430;27;20509;-61
2022/12/04 11:45:00;;;;;;;30.83;16.00;;;2.90;99.90;;;;;;5128675;27;20053;-60
2022/12/04 11:47:31;;;;;;;;;;;2.90;99.90;;;;;;5127704;27;20100;-60
2022/12/04 11:50:02;;;;;;;28.35;14.65;;;2.90;99.90;;;;;;5115378;27;19927;-60
2022/12/04 11:52:54;;;;;;;25.95;14.50;;;2.90;99.90;;;;;;5110010;27;20538;-60
2022/12/04 11:55:35;;;;;;;25.85;13.30;;;2.90;99.90;;;;;;5082362;27;20039;-61
2022/12/04 11:58:34;;;;;;;25.13;14.05;;;2.90;99.90;;;;;;5114214;27;21468;-60
2022/12/04 12:01:21;;;;;;;27.55;13.85;;;2.90;99.90;;;;;;5105144;28;20639;-60
2022/12/04 12:04:08;;;;;;;24.13;14.55;;;2.90;99.90;;;;;;5115470;27;20039;-61
2022/12/04 12:06:56;;;;;;;21.75;13.30;;;2.80;99.90;;;;;;5111345;27;20050;-60
2022/12/04 12:09:45;;;;;;;23.98;13.48;;;2.90;99.90;;;;;;5112032;27;20079;-60
2022/12/04 12:12:38;;;;;;;23.85;12.75;;;2.90;99.90;;;;;;5112202;27;20065;-61
2022/12/04 12:15:12;;;;;;;24.73;13.90;;;2.90;99.90;;;;;;5108017;27;20721;-60
2022/12/04 12:18:00;;;;;;;26.65;13.95;;;3.00;99.90;;;;;;5107553;27;21666;-61
2022/12/04 12:20:37;;;;;;;30.58;14.77;;;3.00;99.90;;;;;;5109307;27;20083;-60
2022/12/04 12:23:12;;;;;;;24.27;13.65;;;3.00;99.90;;;;;;5115758;27;20047;-60
2022/12/04 12:25:51;;;;;;;25.23;14.18;;;3.00;99.90;;;;;;5110448;27;20032;-61
2022/12/04 12:28:29;;;;;;;29.15;15.32;;;3.00;99.90;;;;;;5113031;28;20050;-61
2022/12/04 12:31:28;;;;;;;30.15;16.00;;;3.10;99.90;;;;;;5110126;28;20046;-61
2022/12/04 12:34:08;;;;;;;28.38;15.25;;;3.10;99.90;;;;;;5108134;28;20075;-61
2022/12/04 12:36:41;;;;;;;28.00;14.65;;;3.10;99.90;;;;;;5110199;28;20081;-60
2022/12/04 12:39:38;;;;;;;29.42;14.60;;;3.10;99.90;;;;;;5112636;28;20039;-61
2022/12/04 12:42:16;;;;;;;31.05;15.10;;;3.10;99.90;;;;;;5107778;28;20043;-60
2022/12/04 12:44:58;;;;;;;30.20;15.13;;;3.10;99.90;;;;;;5112879;28;20153;-60
2022/12/04 12:47:29;;;;;;;32.33;15.73;;;3.10;99.90;;;;;;5102540;27;20047;-61
2022/12/04 12:49:59;;;;;;;29.15;13.95;;;3.10;99.90;;;;;;5119015;27;20095;-61
2022/12/04 12:53:00;;;;;;;32.55;16.17;;;3.10;99.90;;;;;;5120103;27;20050;-61
2022/12/04 12:55:43;;;;;;;27.33;15.07;;;3.10;99.90;;;;;;5113113;27;20039;-60
2022/12/04 12:58:31;;;;;;;29.42;15.73;;;3.10;99.90;;;;;;5087933;27;20075;-61
2022/12/04 13:01:05;;;;;;;34.70;16.65;;;3.10;99.90;;;;;;5125391;27;20046;-60
2022/12/04 13:03:54;;;;;;;26.60;14.65;;;3.10;99.90;;;;;;5101916;27;20523;-61
2022/12/04 13:06:32;;;;;;;29.52;16.33;;;3.20;99.90;;;;;;5124755;27;20393;-61
2022/12/04 13:09:24;;;;;;;33.90;15.73;;;3.20;99.90;;;;;;5105730;27;20126;-61
2022/12/04 13:11:53;;;;;;;29.55;16.00;;;3.20;99.90;;;;;;5128236;27;20054;-61
2022/12/04 13:14:20;;;;;;;32.45;16.88;;;3.20;99.90;;;;;;5100756;28;20084;-60
2022/12/04 13:16:50;;;;;;;32.80;17.15;;;3.20;99.90;;;;;;5114117;27;20035;-60
2022/12/04 13:19:19;;;;;;;;;;;3.20;99.90;;;;;;5101904;27;20055;-61